sensor_id;sensor_type;location;lat;lon;timestamp;pressure;altitude;pressure_sealevel;temperature;humidity
10940;BME280;5522;42.696;23.494;2023-03-13T00:01:32;53586.44;;;-139.68;100.00
10940;BME280;5522;42.696;23.494;2023-03-13T00:04:00;53648.75;;;-139.68;100.00
10940;BME280;5522;42.696;23.494;2023-03-13T00:06:29;53586.44;;;-139.68;100.00
10940;BME280;5522;42.696;23.494;2023-03-13T00:08:58;53576.41;;;-139.68;100.00
10940;BME280;5522;42.696;23.494;2023-03-13T00:11:27;53582.44;;;-139.68;100.00
10940;BME280;5522;42.696;23.494;2023-03-13T00:13:55;53594.50;;;-139.68;100.00
10940;BME280;5522;42.696;23.494;2023-03-13T00:16:22;53618.63;;;-139.68;100.00
10940;BME280;5522;42.696;23.494;2023-03-13T00:18:50;53642.72;;;-139.68;100.00
10940;BME280;5522;42.696;23.494;2023-03-13T00:21:19;53598.50;;;-139.68;100.00
10940;BME280;5522;42.696;23.494;2023-03-13T00:23:47;53586.44;;;-139.68;100.00
10940;BME280;5522;42.696;23.494;2023-03-13T00:26:15;53608.56;;;-139.68;100.00
10940;BME280;5522;42.696;23.494;2023-03-13T00:28:45;53614.59;;;-139.68;100.00
10940;BME280;5522;42.696;23.494;2023-03-13T00:31:13;53630.66;;;-139.68;100.00
10940;BME280;5522;42.696;23.494;2023-03-13T00:33:41;53604.53;;;-139.68;100.00
10940;BME280;5522;42.696;23.494;2023-03-13T00:36:10;53586.44;;;-139.68;100.00
10940;BME280;5522;42.696;23.494;2023-03-13T00:38:37;53616.59;;;-139.68;100.00
10940;BME280;5522;42.696;23.494;2023-03-13T00:41:05;53562.31;;;-139.68;100.00
10940;BME280;5522;42.696;23.494;2023-03-13T00:43:33;53606.56;;;-139.68;100.00
10940;BME280;5522;42.696;23.494;2023-03-13T00:46:02;53638.72;;;-139.68;100.00
10940;BME280;5522;42.696;23.494;2023-03-13T00:48:29;53610.56;;;-139.68;100.00
10940;BME280;5522;42.696;23.494;2023-03-13T00:50:58;53598.50;;;-139.68;100.00
10940;BME280;5522;42.696;23.494;2023-03-13T00:53:25;53624.63;;;-139.68;100.00
10940;BME280;5522;42.696;23.494;2023-03-13T00:55:53;53614.59;;;-139.68;100.00
10940;BME280;5522;42.696;23.494;2023-03-13T00:58:20;53574.38;;;-139.68;100.00
10940;BME280;5522;42.696;23.494;2023-03-13T01:06:01;53614.59;;;-139.68;100.00
10940;BME280;5522;42.696;23.494;2023-03-13T01:08:28;53624.63;;;-139.68;100.00
10940;BME280;5522;42.696;23.494;2023-03-13T01:10:59;53590.47;;;-139.68;100.00
10940;BME280;5522;42.696;23.494;2023-03-13T01:13:26;53546.25;;;-139.68;100.00
10940;BME280;5522;42.696;23.494;2023-03-13T01:15:53;53586.44;;;-139.68;100.00
10940;BME280;5522;42.696;23.494;2023-03-13T01:18:20;53622.63;;;-139.68;100.00
10940;BME280;5522;42.696;23.494;2023-03-13T01:20:47;53636.69;;;-139.68;100.00
10940;BME280;5522;42.696;23.494;2023-03-13T01:23:15;53604.53;;;-139.68;100.00
10940;BME280;5522;42.696;23.494;2023-03-13T01:25:42;53570.38;;;-139.68;100.00
10940;BME280;5522;42.696;23.494;2023-03-13T01:28:08;53614.59;;;-139.68;100.00
10940;BME280;5522;42.696;23.494;2023-03-13T01:30:35;53642.72;;;-139.68;100.00
10940;BME280;5522;42.696;23.494;2023-03-13T01:33:02;53582.44;;;-139.68;100.00
10940;BME280;5522;42.696;23.494;2023-03-13T01:35:29;53592.47;;;-139.68;100.00
10940;BME280;5522;42.696;23.494;2023-03-13T01:37:56;53622.63;;;-139.68;100.00
10940;BME280;5522;42.696;23.494;2023-03-13T01:40:24;53602.53;;;-139.68;100.00
10940;BME280;5522;42.696;23.494;2023-03-13T01:42:52;53594.50;;;-139.68;100.00
10940;BME280;5522;42.696;23.494;2023-03-13T01:46:02;53622.63;;;-139.68;100.00
10940;BME280;5522;42.696;23.494;2023-03-13T01:48:34;53624.63;;;-139.68;100.00
10940;BME280;5522;42.696;23.494;2023-03-13T01:51:07;53606.56;;;-139.68;100.00
10940;BME280;5522;42.696;23.494;2023-03-13T01:53:36;53612.56;;;-139.68;100.00
10940;BME280;5522;42.696;23.494;2023-03-13T01:56:08;53570.38;;;-139.68;100.00
10940;BME280;5522;42.696;23.494;2023-03-13T01:58:37;53620.63;;;-139.68;100.00
10940;BME280;5522;42.696;23.494;2023-03-13T02:01:04;53628.66;;;-139.68;100.00
10940;BME280;5522;42.696;23.494;2023-03-13T02:03:34;53626.66;;;-139.68;100.00
10940;BME280;5522;42.696;23.494;2023-03-13T02:06:03;53616.59;;;-139.68;100.00
10940;BME280;5522;42.696;23.494;2023-03-13T02:08:36;53618.63;;;-139.68;100.00
10940;BME280;5522;42.696;23.494;2023-03-13T02:11:11;53610.56;;;-139.68;100.00
10940;BME280;5522;42.696;23.494;2023-03-13T02:13:42;53586.44;;;-139.68;100.00
10940;BME280;5522;42.696;23.494;2023-03-13T02:16:09;53630.66;;;-139.68;100.00
10940;BME280;5522;42.696;23.494;2023-03-13T02:18:37;53574.38;;;-139.68;100.00
10940;BME280;5522;42.696;23.494;2023-03-13T02:21:10;53598.50;;;-139.68;100.00
10940;BME280;5522;42.696;23.494;2023-03-13T02:23:43;53582.44;;;-139.68;100.00
10940;BME280;5522;42.696;23.494;2023-03-13T02:26:17;53622.63;;;-139.68;100.00
10940;BME280;5522;42.696;23.494;2023-03-13T02:28:44;53588.47;;;-139.68;100.00
10940;BME280;5522;42.696;23.494;2023-03-13T02:31:11;53610.56;;;-139.68;100.00
10940;BME280;5522;42.696;23.494;2023-03-13T02:33:40;53598.50;;;-139.68;100.00
10940;BME280;5522;42.696;23.494;2023-03-13T02:36:08;53610.56;;;-139.68;100.00
10940;BME280;5522;42.696;23.494;2023-03-13T02:38:39;53622.63;;;-139.68;100.00
10940;BME280;5522;42.696;23.494;2023-03-13T02:41:08;53642.72;;;-139.68;100.00
10940;BME280;5522;42.696;23.494;2023-03-13T02:43:37;53562.31;;;-139.68;100.00
10940;BME280;5522;42.696;23.494;2023-03-13T02:46:07;53630.66;;;-139.68;100.00
10940;BME280;5522;42.696;23.494;2023-03-13T02:48:36;53606.56;;;-139.68;100.00
10940;BME280;5522;42.696;23.494;2023-03-13T02:51:07;53584.44;;;-139.68;100.00
10940;BME280;5522;42.696;23.494;2023-03-13T02:53:37;53622.63;;;-139.68;100.00
10940;BME280;5522;42.696;23.494;2023-03-13T02:56:04;53558.31;;;-139.68;100.00
10940;BME280;5522;42.696;23.494;2023-03-13T02:58:39;53612.56;;;-139.68;100.00
10940;BME280;5522;42.696;23.494;2023-03-13T03:01:06;53586.44;;;-139.68;100.00
10940;BME280;5522;42.696;23.494;2023-03-13T03:03:34;53594.50;;;-139.68;100.00
10940;BME280;5522;42.696;23.494;2023-03-13T03:06:01;53590.47;;;-139.68;100.00
10940;BME280;5522;42.696;23.494;2023-03-13T03:08:29;53564.34;;;-139.68;100.00
10940;BME280;5522;42.696;23.494;2023-03-13T03:10:55;53622.63;;;-139.68;100.00
10940;BME280;5522;42.696;23.494;2023-03-13T03:13:22;53610.56;;;-139.68;100.00
10940;BME280;5522;42.696;23.494;2023-03-13T03:15:50;53562.31;;;-139.68;100.00
10940;BME280;5522;42.696;23.494;2023-03-13T03:18:17;53618.63;;;-139.68;100.00
10940;BME280;5522;42.696;23.494;2023-03-13T03:20:44;53608.56;;;-139.68;100.00
10940;BME280;5522;42.696;23.494;2023-03-13T03:23:11;53574.38;;;-139.68;100.00
10940;BME280;5522;42.696;23.494;2023-03-13T03:25:37;53582.44;;;-139.68;100.00
10940;BME280;5522;42.696;23.494;2023-03-13T03:28:04;53564.34;;;-139.68;100.00
10940;BME280;5522;42.696;23.494;2023-03-13T03:30:31;53576.41;;;-139.68;100.00
10940;BME280;5522;42.696;23.494;2023-03-13T03:33:01;53558.31;;;-139.68;100.00
10940;BME280;5522;42.696;23.494;2023-03-13T03:35:28;53608.56;;;-139.68;100.00
10940;BME280;5522;42.696;23.494;2023-03-13T03:37:55;53582.44;;;-139.68;100.00
10940;BME280;5522;42.696;23.494;2023-03-13T03:40:21;53588.47;;;-139.68;100.00
10940;BME280;5522;42.696;23.494;2023-03-13T03:42:48;53622.63;;;-139.68;100.00
10940;BME280;5522;42.696;23.494;2023-03-13T03:45:15;53598.50;;;-139.68;100.00
10940;BME280;5522;42.696;23.494;2023-03-13T03:47:42;53612.56;;;-139.68;100.00
10940;BME280;5522;42.696;23.494;2023-03-13T03:50:10;53560.31;;;-139.68;100.00
10940;BME280;5522;42.696;23.494;2023-03-13T03:52:37;53570.38;;;-139.68;100.00
10940;BME280;5522;42.696;23.494;2023-03-13T03:55:04;53590.47;;;-139.68;100.00
10940;BME280;5522;42.696;23.494;2023-03-13T03:57:31;53572.38;;;-139.68;100.00
10940;BME280;5522;42.696;23.494;2023-03-13T03:59:58;53604.53;;;-139.68;100.00
10940;BME280;5522;42.696;23.494;2023-03-13T04:02:25;53578.41;;;-139.68;100.00
10940;BME280;5522;42.696;23.494;2023-03-13T04:04:52;53602.53;;;-139.68;100.00
10940;BME280;5522;42.696;23.494;2023-03-13T04:07:20;53558.31;;;-139.68;100.00
10940;BME280;5522;42.696;23.494;2023-03-13T04:09:47;53608.56;;;-139.68;100.00
10940;BME280;5522;42.696;23.494;2023-03-13T04:12:13;53612.56;;;-139.68;100.00
10940;BME280;5522;42.696;23.494;2023-03-13T04:14:40;53574.38;;;-139.68;100.00
10940;BME280;5522;42.696;23.494;2023-03-13T04:17:07;53556.28;;;-139.68;100.00
10940;BME280;5522;42.696;23.494;2023-03-13T04:19:34;53606.56;;;-139.68;100.00
10940;BME280;5522;42.696;23.494;2023-03-13T04:22:00;53590.47;;;-139.68;100.00
10940;BME280;5522;42.696;23.494;2023-03-13T04:24:29;53558.31;;;-139.68;100.00
10940;BME280;5522;42.696;23.494;2023-03-13T04:26:55;53548.25;;;-139.68;100.00
10940;BME280;5522;42.696;23.494;2023-03-13T04:29:22;53586.44;;;-139.68;100.00
10940;BME280;5522;42.696;23.494;2023-03-13T04:31:49;53576.41;;;-139.68;100.00
10940;BME280;5522;42.696;23.494;2023-03-13T04:34:16;53552.28;;;-139.68;100.00
10940;BME280;5522;42.696;23.494;2023-03-13T04:36:43;53600.53;;;-139.68;100.00
10940;BME280;5522;42.696;23.494;2023-03-13T04:39:10;53598.50;;;-139.68;100.00
10940;BME280;5522;42.696;23.494;2023-03-13T04:41:38;53562.31;;;-139.68;100.00
10940;BME280;5522;42.696;23.494;2023-03-13T04:44:05;53570.38;;;-139.68;100.00
10940;BME280;5522;42.696;23.494;2023-03-13T04:46:31;53568.34;;;-139.68;100.00
10940;BME280;5522;42.696;23.494;2023-03-13T04:48:58;53566.34;;;-139.68;100.00
10940;BME280;5522;42.696;23.494;2023-03-13T04:51:26;53622.63;;;-139.68;100.00
10940;BME280;5522;42.696;23.494;2023-03-13T04:53:53;53600.53;;;-139.68;100.00
10940;BME280;5522;42.696;23.494;2023-03-13T04:56:22;53586.44;;;-139.68;100.00
10940;BME280;5522;42.696;23.494;2023-03-13T04:58:50;53554.28;;;-139.68;100.00
10940;BME280;5522;42.696;23.494;2023-03-13T05:01:17;53622.63;;;-139.68;100.00
10940;BME280;5522;42.696;23.494;2023-03-13T05:03:44;53596.50;;;-139.68;100.00
10940;BME280;5522;42.696;23.494;2023-03-13T05:06:11;53646.75;;;-139.68;100.00
10940;BME280;5522;42.696;23.494;2023-03-13T05:08:38;53592.47;;;-139.68;100.00
10940;BME280;5522;42.696;23.494;2023-03-13T05:11:05;53602.53;;;-139.68;100.00
10940;BME280;5522;42.696;23.494;2023-03-13T05:13:32;53578.41;;;-139.68;100.00
10940;BME280;5522;42.696;23.494;2023-03-13T05:16:00;53614.59;;;-139.68;100.00
10940;BME280;5522;42.696;23.494;2023-03-13T05:18:27;53604.53;;;-139.68;96.59
10940;BME280;5522;42.696;23.494;2023-03-13T05:20:54;53642.72;;;-139.68;89.99
10940;BME280;5522;42.696;23.494;2023-03-13T05:23:21;53624.63;;;-139.68;82.13
10940;BME280;5522;42.696;23.494;2023-03-13T05:25:48;53642.72;;;-139.68;59.42
10940;BME280;5522;42.696;23.494;2023-03-13T05:28:15;53610.56;;;-139.68;51.80
10940;BME280;5522;42.696;23.494;2023-03-13T05:30:41;53648.75;;;-139.68;48.92
10940;BME280;5522;42.696;23.494;2023-03-13T05:33:10;53676.91;;;-139.68;45.35
10940;BME280;5522;42.696;23.494;2023-03-13T05:35:37;53733.19;;;-139.68;41.09
10940;BME280;5522;42.696;23.494;2023-03-13T05:38:03;53711.09;;;-139.68;38.91
10940;BME280;5522;42.696;23.494;2023-03-13T05:40:30;53680.94;;;-139.68;38.13
10940;BME280;5522;42.696;23.494;2023-03-13T05:42:57;53705.06;;;-139.68;37.83
10940;BME280;5522;42.696;23.494;2023-03-13T05:45:24;53695.00;;;-139.68;38.16
10940;BME280;5522;42.696;23.494;2023-03-13T05:47:51;53670.88;;;-139.68;35.75
10940;BME280;5522;42.696;23.494;2023-03-13T05:50:19;53727.16;;;-139.68;35.49
10940;BME280;5522;42.696;23.494;2023-03-13T05:52:46;53686.97;;;-139.68;34.72
10940;BME280;5522;42.696;23.494;2023-03-13T05:55:13;53729.16;;;-139.68;37.23
10940;BME280;5522;42.696;23.494;2023-03-13T05:57:43;53690.97;;;-139.68;38.25
10940;BME280;5522;42.696;23.494;2023-03-13T06:00:12;53715.09;;;-139.68;37.74
10940;BME280;5522;42.696;23.494;2023-03-13T06:02:39;53753.28;;;-139.68;40.37
10940;BME280;5522;42.696;23.494;2023-03-13T06:05:06;53684.94;;;-139.68;38.49
10940;BME280;5522;42.696;23.494;2023-03-13T06:07:35;53707.06;;;-139.68;36.04
10940;BME280;5522;42.696;23.494;2023-03-13T06:10:02;53743.25;;;-139.68;34.81
10940;BME280;5522;42.696;23.494;2023-03-13T06:12:29;53703.03;;;-139.68;35.07
10940;BME280;5522;42.696;23.494;2023-03-13T06:14:56;53711.09;;;-139.68;33.88
10940;BME280;5522;42.696;23.494;2023-03-13T06:17:22;53725.16;;;-139.68;33.73
10940;BME280;5522;42.696;23.494;2023-03-13T06:19:50;53753.28;;;-139.68;35.17
10940;BME280;5522;42.696;23.494;2023-03-13T06:22:17;53719.13;;;-139.68;33.25
10940;BME280;5522;42.696;23.494;2023-03-13T06:24:45;53703.03;;;-139.68;32.27
10940;BME280;5522;42.696;23.494;2023-03-13T06:27:14;53755.31;;;-139.68;30.74
10940;BME280;5522;42.696;23.494;2023-03-13T06:29:41;53755.31;;;-139.68;31.25
10940;BME280;5522;42.696;23.494;2023-03-13T06:32:07;53737.22;;;-139.68;32.72
10940;BME280;5522;42.696;23.494;2023-03-13T06:34:34;53723.13;;;-139.68;32.49
10940;BME280;5522;42.696;23.494;2023-03-13T06:37:02;53747.25;;;-139.68;31.95
10940;BME280;5522;42.696;23.494;2023-03-13T06:39:29;53749.28;;;-139.68;32.02
10940;BME280;5522;42.696;23.494;2023-03-13T06:41:58;53695.00;;;-139.68;31.92
10940;BME280;5522;42.696;23.494;2023-03-13T06:44:24;53701.03;;;-139.68;33.06
10940;BME280;5522;42.696;23.494;2023-03-13T06:46:51;53703.03;;;-139.68;34.08
10940;BME280;5522;42.696;23.494;2023-03-13T06:49:18;53757.31;;;-139.68;33.61
10940;BME280;5522;42.696;23.494;2023-03-13T06:51:45;53755.31;;;-139.68;34.29
10940;BME280;5522;42.696;23.494;2023-03-13T06:54:12;53761.34;;;-139.68;35.02
10940;BME280;5522;42.696;23.494;2023-03-13T06:56:39;53688.97;;;-139.68;33.89
10940;BME280;5522;42.696;23.494;2023-03-13T06:59:07;53735.19;;;-139.68;32.76
10940;BME280;5522;42.696;23.494;2023-03-13T07:01:34;53715.09;;;-139.68;32.10
10940;BME280;5522;42.696;23.494;2023-03-13T07:04:01;53735.19;;;-139.68;31.38
10940;BME280;5522;42.696;23.494;2023-03-13T07:06:27;53739.22;;;-139.68;30.72
10940;BME280;5522;42.696;23.494;2023-03-13T07:08:54;53739.22;;;-139.68;30.40
10940;BME280;5522;42.696;23.494;2023-03-13T07:11:21;53739.22;;;-139.68;29.42
10940;BME280;5522;42.696;23.494;2023-03-13T07:13:49;53791.50;;;-139.68;29.02
10940;BME280;5522;42.696;23.494;2023-03-13T07:16:17;53713.09;;;-139.68;29.43
10940;BME280;5522;42.696;23.494;2023-03-13T07:18:44;53773.41;;;-139.68;29.11
10940;BME280;5522;42.696;23.494;2023-03-13T07:21:11;53749.28;;;-139.68;30.24
10940;BME280;5522;42.696;23.494;2023-03-13T07:23:39;53725.16;;;-139.68;29.90
10940;BME280;5522;42.696;23.494;2023-03-13T07:26:08;53737.22;;;-139.68;29.83
10940;BME280;5522;42.696;23.494;2023-03-13T07:28:35;53789.47;;;-139.68;28.21
10940;BME280;5522;42.696;23.494;2023-03-13T07:31:04;53793.50;;;-139.68;29.19
10940;BME280;5522;42.696;23.494;2023-03-13T07:33:33;53751.28;;;-139.68;29.21
10940;BME280;5522;42.696;23.494;2023-03-13T07:36:00;53781.44;;;-139.68;29.51
10940;BME280;5522;42.696;23.494;2023-03-13T07:38:27;53771.38;;;-139.68;29.70
10940;BME280;5522;42.696;23.494;2023-03-13T07:40:55;53733.19;;;-139.68;29.90
10940;BME280;5522;42.696;23.494;2023-03-13T07:43:23;53765.34;;;-139.68;29.41
10940;BME280;5522;42.696;23.494;2023-03-13T07:45:51;53755.31;;;-139.68;28.57
10940;BME280;5522;42.696;23.494;2023-03-13T07:48:19;53763.34;;;-139.68;29.06
10940;BME280;5522;42.696;23.494;2023-03-13T07:50:47;53783.44;;;-139.68;27.83
10940;BME280;5522;42.696;23.494;2023-03-13T07:53:15;53815.63;;;-139.68;28.83
10940;BME280;5522;42.696;23.494;2023-03-13T07:55:52;53805.56;;;-139.68;28.89
10940;BME280;5522;42.696;23.494;2023-03-13T07:58:20;53767.38;;;-139.68;29.45
10940;BME280;5522;42.696;23.494;2023-03-13T08:00:47;53743.25;;;-139.68;28.61
10940;BME280;5522;42.696;23.494;2023-03-13T08:03:14;53795.50;;;-139.68;28.44
10940;BME280;5522;42.696;23.494;2023-03-13T08:05:41;53751.28;;;-139.68;27.58
10940;BME280;5522;42.696;23.494;2023-03-13T08:08:09;53799.53;;;-139.68;28.50
10940;BME280;5522;42.696;23.494;2023-03-13T08:10:36;53827.69;;;-139.68;27.04
10940;BME280;5522;42.696;23.494;2023-03-13T08:13:03;53775.41;;;-139.68;27.48
10940;BME280;5522;42.696;23.494;2023-03-13T08:15:30;53787.47;;;-139.68;27.08
10940;BME280;5522;42.696;23.494;2023-03-13T08:17:57;53781.44;;;-139.68;27.84
10940;BME280;5522;42.696;23.494;2023-03-13T08:20:24;53787.47;;;-139.68;26.92
10940;BME280;5522;42.696;23.494;2023-03-13T08:22:51;53765.34;;;-139.68;26.26
10940;BME280;5522;42.696;23.494;2023-03-13T08:25:21;53795.50;;;-139.68;26.87
10940;BME280;5522;42.696;23.494;2023-03-13T08:27:48;53777.41;;;-139.68;25.87
10940;BME280;5522;42.696;23.494;2023-03-13T08:30:15;53783.44;;;-139.68;28.13
10940;BME280;5522;42.696;23.494;2023-03-13T08:32:42;53779.44;;;-139.68;27.28
10940;BME280;5522;42.696;23.494;2023-03-13T08:35:09;53799.53;;;-139.68;27.15
10940;BME280;5522;42.696;23.494;2023-03-13T08:37:36;53751.28;;;-139.68;28.69
10940;BME280;5522;42.696;23.494;2023-03-13T08:40:03;53777.41;;;-139.68;27.94
10940;BME280;5522;42.696;23.494;2023-03-13T08:42:37;53813.59;;;-139.68;27.59
10940;BME280;5522;42.696;23.494;2023-03-13T08:45:06;53753.28;;;-139.68;27.58
10940;BME280;5522;42.696;23.494;2023-03-13T08:47:34;53779.44;;;-139.68;27.15
10940;BME280;5522;42.696;23.494;2023-03-13T08:50:01;53795.50;;;-139.68;26.14
10940;BME280;5522;42.696;23.494;2023-03-13T08:52:28;53799.53;;;-139.68;26.48
10940;BME280;5522;42.696;23.494;2023-03-13T08:54:55;53805.56;;;-139.68;25.30
10940;BME280;5522;42.696;23.494;2023-03-13T08:57:21;53763.34;;;-139.68;26.71
10940;BME280;5522;42.696;23.494;2023-03-13T08:59:50;53855.81;;;-139.68;25.65
10940;BME280;5522;42.696;23.494;2023-03-13T09:02:17;53793.50;;;-139.68;25.24
10940;BME280;5522;42.696;23.494;2023-03-13T09:04:46;53811.59;;;-139.68;26.17
10940;BME280;5522;42.696;23.494;2023-03-13T09:07:14;53819.63;;;-139.68;26.03
10940;BME280;5522;42.696;23.494;2023-03-13T09:09:41;53803.56;;;-139.68;27.20
10940;BME280;5522;42.696;23.494;2023-03-13T09:12:09;53847.78;;;-139.68;26.26
10940;BME280;5522;42.696;23.494;2023-03-13T09:14:36;53829.69;;;-139.68;27.30
10940;BME280;5522;42.696;23.494;2023-03-13T09:17:04;53803.56;;;-139.68;26.83
10940;BME280;5522;42.696;23.494;2023-03-13T09:19:31;53803.56;;;-139.68;26.46
10940;BME280;5522;42.696;23.494;2023-03-13T09:21:58;53835.72;;;-139.68;25.34
10940;BME280;5522;42.696;23.494;2023-03-13T09:24:25;53819.63;;;-139.68;24.70
10940;BME280;5522;42.696;23.494;2023-03-13T09:26:52;53787.47;;;-139.68;24.96
10940;BME280;5522;42.696;23.494;2023-03-13T09:29:19;53875.94;;;-139.68;24.57
10940;BME280;5522;42.696;23.494;2023-03-13T09:31:46;53833.72;;;-139.68;26.09
10940;BME280;5522;42.696;23.494;2023-03-13T09:34:14;53805.56;;;-139.68;26.65
10940;BME280;5522;42.696;23.494;2023-03-13T09:36:41;53833.72;;;-139.68;26.38
10940;BME280;5522;42.696;23.494;2023-03-13T09:39:07;53829.69;;;-139.68;25.50
10940;BME280;5522;42.696;23.494;2023-03-13T09:41:38;53819.63;;;-139.68;24.96
10940;BME280;5522;42.696;23.494;2023-03-13T09:44:10;53795.50;;;-139.68;25.06
10940;BME280;5522;42.696;23.494;2023-03-13T09:46:44;53795.50;;;-139.68;26.14
10940;BME280;5522;42.696;23.494;2023-03-13T09:49:27;53845.78;;;-139.68;25.68
10940;BME280;5522;42.696;23.494;2023-03-13T09:52:01;53879.94;;;-139.68;25.82
10940;BME280;5522;42.696;23.494;2023-03-13T09:54:34;53833.72;;;-139.68;25.21
10940;BME280;5522;42.696;23.494;2023-03-13T09:57:06;53833.72;;;-139.68;25.16
10940;BME280;5522;42.696;23.494;2023-03-13T09:59:44;53837.72;;;-139.68;26.53
10940;BME280;5522;42.696;23.494;2023-03-13T10:02:28;53823.66;;;-139.68;26.45
10940;BME280;5522;42.696;23.494;2023-03-13T10:05:09;53833.72;;;-139.68;26.17
10940;BME280;5522;42.696;23.494;2023-03-13T10:07:38;53833.72;;;-139.68;26.66
10940;BME280;5522;42.696;23.494;2023-03-13T10:10:11;53839.75;;;-139.68;27.01
10940;BME280;5522;42.696;23.494;2023-03-13T10:12:44;53857.84;;;-139.68;26.44
10940;BME280;5522;42.696;23.494;2023-03-13T10:15:29;53867.88;;;-139.68;26.12
10940;BME280;5522;42.696;23.494;2023-03-13T10:17:59;53847.78;;;-139.68;25.16
10940;BME280;5522;42.696;23.494;2023-03-13T10:20:33;53819.63;;;-139.68;25.87
10940;BME280;5522;42.696;23.494;2023-03-13T10:23:04;53845.78;;;-139.68;26.04
10940;BME280;5522;42.696;23.494;2023-03-13T10:25:33;53853.81;;;-139.68;26.39
10940;BME280;5522;42.696;23.494;2023-03-13T10:28:01;53831.69;;;-139.68;26.83
10940;BME280;5522;42.696;23.494;2023-03-13T10:30:29;53847.78;;;-139.68;27.23
10940;BME280;5522;42.696;23.494;2023-03-13T10:32:58;53819.63;;;-139.68;25.80
10940;BME280;5522;42.696;23.494;2023-03-13T10:35:32;53851.81;;;-139.68;25.94
10940;BME280;5522;42.696;23.494;2023-03-13T10:38:07;53877.94;;;-139.68;26.99
10940;BME280;5522;42.696;23.494;2023-03-13T10:40:36;53871.91;;;-139.68;26.32
10940;BME280;5522;42.696;23.494;2023-03-13T10:43:05;53825.66;;;-139.68;26.68
10940;BME280;5522;42.696;23.494;2023-03-13T10:45:35;53839.75;;;-139.68;26.63
10940;BME280;5522;42.696;23.494;2023-03-13T10:48:09;53845.78;;;-139.68;26.85
10940;BME280;5522;42.696;23.494;2023-03-13T10:50:42;53851.81;;;-139.68;26.22
10940;BME280;5522;42.696;23.494;2023-03-13T10:53:24;53851.81;;;-139.68;26.65
10940;BME280;5522;42.696;23.494;2023-03-13T10:55:52;53833.72;;;-139.68;26.81
10940;BME280;5522;42.696;23.494;2023-03-13T10:58:23;53867.88;;;-139.68;26.07
10940;BME280;5522;42.696;23.494;2023-03-13T11:01:09;53843.75;;;-139.68;27.22
10940;BME280;5522;42.696;23.494;2023-03-13T11:03:41;53839.75;;;-139.68;27.52
10940;BME280;5522;42.696;23.494;2023-03-13T11:06:23;53855.81;;;-139.68;28.46
10940;BME280;5522;42.696;23.494;2023-03-13T11:08:57;53827.69;;;-139.68;28.32
10940;BME280;5522;42.696;23.494;2023-03-13T11:11:25;53827.69;;;-139.68;29.66
10940;BME280;5522;42.696;23.494;2023-03-13T11:14:06;53787.47;;;-139.68;29.08
10940;BME280;5522;42.696;23.494;2023-03-13T11:16:37;53851.81;;;-139.68;30.02
10940;BME280;5522;42.696;23.494;2023-03-13T11:19:18;53827.69;;;-139.68;30.72
10940;BME280;5522;42.696;23.494;2023-03-13T11:21:59;53851.81;;;-139.68;32.90
10940;BME280;5522;42.696;23.494;2023-03-13T11:24:35;53791.50;;;-139.68;32.00
10940;BME280;5522;42.696;23.494;2023-03-13T11:27:11;53795.50;;;-139.68;31.01
10940;BME280;5522;42.696;23.494;2023-03-13T11:29:45;53835.72;;;-139.68;32.15
10940;BME280;5522;42.696;23.494;2023-03-13T11:32:20;53787.47;;;-139.68;33.67
10940;BME280;5522;42.696;23.494;2023-03-13T11:34:51;53773.41;;;-139.68;33.73
10940;BME280;5522;42.696;23.494;2023-03-13T11:37:23;53819.63;;;-139.68;31.64
10940;BME280;5522;42.696;23.494;2023-03-13T11:40:01;53847.78;;;-139.68;30.88
10940;BME280;5522;42.696;23.494;2023-03-13T11:42:42;53825.66;;;-139.68;31.26
10940;BME280;5522;42.696;23.494;2023-03-13T11:45:26;53811.59;;;-139.68;34.10
10940;BME280;5522;42.696;23.494;2023-03-13T11:47:58;53811.59;;;-139.68;34.31
10940;BME280;5522;42.696;23.494;2023-03-13T11:50:34;53827.69;;;-139.68;34.86
10940;BME280;5522;42.696;23.494;2023-03-13T11:53:34;53817.63;;;-139.68;34.67
10940;BME280;5522;42.696;23.494;2023-03-13T11:56:11;53807.56;;;-139.68;35.72
10940;BME280;5522;42.696;23.494;2023-03-13T11:58:52;53827.69;;;-139.68;35.08
10940;BME280;5522;42.696;23.494;2023-03-13T12:01:23;53807.56;;;-139.68;34.27
10940;BME280;5522;42.696;23.494;2023-03-13T12:03:55;53851.81;;;-139.68;33.10
10940;BME280;5522;42.696;23.494;2023-03-13T12:06:28;53831.69;;;-139.68;32.75
10940;BME280;5522;42.696;23.494;2023-03-13T12:09:01;53815.63;;;-139.68;32.83
10940;BME280;5522;42.696;23.494;2023-03-13T12:11:32;53833.72;;;-139.68;33.00
10940;BME280;5522;42.696;23.494;2023-03-13T12:14:05;53829.69;;;-139.68;33.56
10940;BME280;5522;42.696;23.494;2023-03-13T12:16:40;53815.63;;;-139.68;32.86
10940;BME280;5522;42.696;23.494;2023-03-13T12:19:10;53825.66;;;-139.68;31.89
10940;BME280;5522;42.696;23.494;2023-03-13T12:21:44;53797.53;;;-139.68;32.26
10940;BME280;5522;42.696;23.494;2023-03-13T12:24:21;53823.66;;;-139.68;32.93
10940;BME280;5522;42.696;23.494;2023-03-13T12:26:50;53817.63;;;-139.68;33.69
10940;BME280;5522;42.696;23.494;2023-03-13T12:29:30;53827.69;;;-139.68;34.57
10940;BME280;5522;42.696;23.494;2023-03-13T12:32:03;53789.47;;;-139.68;32.79
10940;BME280;5522;42.696;23.494;2023-03-13T12:34:38;53839.75;;;-139.68;32.88
10940;BME280;5522;42.696;23.494;2023-03-13T12:37:13;53823.66;;;-139.68;31.55
10940;BME280;5522;42.696;23.494;2023-03-13T12:39:50;53785.47;;;-139.68;32.13
10940;BME280;5522;42.696;23.494;2023-03-13T12:42:35;53793.50;;;-139.68;32.11
10940;BME280;5522;42.696;23.494;2023-03-13T12:45:06;53831.69;;;-139.68;32.36
10940;BME280;5522;42.696;23.494;2023-03-13T12:47:43;53827.69;;;-139.68;33.82
10940;BME280;5522;42.696;23.494;2023-03-13T12:50:28;53833.72;;;-139.68;32.88
10940;BME280;5522;42.696;23.494;2023-03-13T12:53:32;53807.56;;;-139.68;34.14